Henderson, Nebraska
Current Conditions -  °F | °C
As of 7:55 PM on Saturday 25 Oct 2014 (Local Time) from KAUH Reporting Station
Clear Clear  
Wind Chill: 58°   Ceiling: Unl
Heat Index: 58°   Visibility: 10mi
Dew Point: 43°   Wind: 7mph
Humidity: 58%   Direction: 70°ENE
Pressure: 30.02"   Gusts: NA
Location:  40.78°N, 97.81°W
Report Text: KAUH 260055Z AUTO 07006KT 10SM CLR 14/06 A3002 RMK AO2 T01440063
Loading
Personal Weather Stations






























Interactive Weather Map
Tropical Storm Tracking
New forecast layout! Learn more

10-Day Weather Forecast

Advertisements
Track Severe Weather on mobile